createdAt,value
2017-11-15T00:00:10.276Z,0
2017-11-15T00:01:11.679Z,0
2017-11-15T00:02:13.073Z,0
2017-11-15T00:03:14.468Z,0
2017-11-15T00:04:15.864Z,0
2017-11-15T00:05:17.260Z,0
2017-11-15T00:06:18.657Z,0
2017-11-15T00:07:20.050Z,0
2017-11-15T00:08:21.451Z,0
2017-11-15T00:09:22.852Z,0
2017-11-15T00:10:24.246Z,0
2017-11-15T00:11:25.640Z,0
2017-11-15T00:12:27.038Z,0
2017-11-15T00:13:28.434Z,0
2017-11-15T00:14:29.832Z,0
2017-11-15T00:15:31.237Z,0
2017-11-15T00:16:32.628Z,0
2017-11-15T00:17:34.024Z,0
2017-11-15T00:18:35.423Z,0
2017-11-15T00:19:36.822Z,0
2017-11-15T00:20:38.222Z,0
2017-11-15T00:21:39.616Z,0
2017-11-15T00:22:41.014Z,0
2017-11-15T00:23:42.412Z,0
2017-11-15T00:24:43.807Z,0
2017-11-15T00:25:45.201Z,0
2017-11-15T00:26:46.596Z,0
2017-11-15T00:27:48.002Z,0
2017-11-15T00:28:49.386Z,0
2017-11-15T00:29:50.787Z,0
2017-11-15T00:30:52.178Z,0
2017-11-15T00:31:53.570Z,0
2017-11-15T00:32:54.967Z,0
2017-11-15T00:33:56.357Z,0
2017-11-15T00:34:57.757Z,0
2017-11-15T00:35:59.153Z,0
2017-11-15T00:37:00.552Z,0
2017-11-15T00:38:01.953Z,0
2017-11-15T00:39:03.342Z,0
2017-11-15T00:40:04.738Z,0
2017-11-15T00:41:06.138Z,0
2017-11-15T00:42:07.543Z,0
2017-11-15T00:43:08.935Z,0
2017-11-15T00:44:10.333Z,0
2017-11-15T00:45:11.727Z,0
2017-11-15T00:46:13.118Z,0
2017-11-15T00:47:14.511Z,0
2017-11-15T00:48:15.904Z,0
2017-11-15T00:49:17.306Z,0
2017-11-15T00:50:18.696Z,0
2017-11-15T00:51:20.092Z,0
2017-11-15T00:52:21.486Z,0
2017-11-15T00:53:22.878Z,0
2017-11-15T00:54:24.270Z,0
2017-11-15T00:55:25.665Z,0
2017-11-15T00:56:27.060Z,0
2017-11-15T00:57:28.459Z,0
2017-11-15T00:58:29.852Z,0
2017-11-15T00:59:31.247Z,0
2017-11-15T01:00:32.642Z,0
2017-11-15T01:01:34.038Z,0
2017-11-15T01:02:35.432Z,0
2017-11-15T01:03:36.834Z,0
2017-11-15T01:04:38.231Z,0
2017-11-15T01:05:39.627Z,0
2017-11-15T01:06:41.019Z,0
2017-11-15T01:07:42.415Z,0
2017-11-15T01:08:43.813Z,0
2017-11-15T01:09:45.212Z,0
2017-11-15T01:10:46.610Z,0
2017-11-15T01:11:48.008Z,0
2017-11-15T01:12:49.423Z,0
2017-11-15T01:13:50.816Z,0
2017-11-15T01:14:52.213Z,0
2017-11-15T01:15:53.606Z,0
2017-11-15T01:16:54.999Z,0
2017-11-15T01:17:56.398Z,0
2017-11-15T01:18:57.794Z,0
2017-11-15T01:19:59.193Z,0
2017-11-15T01:21:00.587Z,0
2017-11-15T01:22:01.984Z,0
2017-11-15T01:23:03.379Z,0
2017-11-15T01:24:04.774Z,0
2017-11-15T01:25:06.174Z,0
2017-11-15T01:26:07.566Z,0
2017-11-15T01:27:08.974Z,0
2017-11-15T01:28:10.368Z,0
2017-11-15T01:29:11.759Z,0
2017-11-15T01:30:13.168Z,0
2017-11-15T01:31:14.560Z,0
2017-11-15T01:32:16.007Z,0
2017-11-15T01:33:17.404Z,0
2017-11-15T01:34:18.801Z,0
2017-11-15T01:35:20.195Z,0
2017-11-15T01:36:21.591Z,0
2017-11-15T01:37:22.984Z,0
2017-11-15T01:38:24.380Z,0
2017-11-15T01:39:25.778Z,0
2017-11-15T01:40:27.176Z,0
2017-11-15T01:41:28.583Z,0
2017-11-15T01:42:29.981Z,0
2017-11-15T01:43:31.373Z,0
2017-11-15T01:44:32.772Z,0
2017-11-15T01:45:34.165Z,0
2017-11-15T01:46:35.560Z,0
2017-11-15T01:47:36.961Z,0
2017-11-15T01:48:38.365Z,0
2017-11-15T01:49:39.752Z,0
2017-11-15T01:50:41.146Z,0
2017-11-15T01:51:42.541Z,0
2017-11-15T01:52:43.937Z,0
2017-11-15T01:53:45.335Z,0
2017-11-15T01:54:46.731Z,0
2017-11-15T01:55:48.130Z,0
2017-11-15T01:56:49.525Z,0
2017-11-15T01:57:50.916Z,0
2017-11-15T01:58:52.319Z,0
2017-11-15T01:59:53.707Z,0
2017-11-15T02:00:55.108Z,0
2017-11-15T02:01:56.508Z,0
2017-11-15T02:02:57.914Z,0
2017-11-15T02:03:59.307Z,0
2017-11-15T02:05:00.711Z,0
2017-11-15T02:06:02.109Z,0
2017-11-15T02:07:03.510Z,0
2017-11-15T02:08:04.902Z,0
2017-11-15T02:09:06.298Z,0
2017-11-15T02:10:07.694Z,0
2017-11-15T02:11:09.092Z,0
2017-11-15T02:12:10.487Z,0
2017-11-15T02:13:11.885Z,0
2017-11-15T02:14:13.283Z,0
2017-11-15T02:15:14.679Z,0
2017-11-15T02:16:16.087Z,0
2017-11-15T02:17:17.483Z,0
2017-11-15T02:18:18.882Z,0
2017-11-15T02:19:20.274Z,0
2017-11-15T02:20:21.668Z,0
2017-11-15T02:21:23.072Z,0
2017-11-15T02:22:24.466Z,0
2017-11-15T02:23:25.862Z,0
2017-11-15T02:24:27.261Z,0
2017-11-15T02:25:28.656Z,0
2017-11-15T02:26:30.051Z,0
2017-11-15T02:27:31.443Z,0
2017-11-15T02:28:32.839Z,0
2017-11-15T02:29:34.236Z,0
2017-11-15T02:30:35.632Z,0
2017-11-15T02:31:37.031Z,0
2017-11-15T02:32:38.424Z,0
2017-11-15T02:33:39.822Z,0
2017-11-15T02:34:41.211Z,0
2017-11-15T02:35:42.608Z,0
2017-11-15T02:36:44.004Z,0
2017-11-15T02:37:45.396Z,0
2017-11-15T02:38:46.792Z,0
2017-11-15T02:39:48.184Z,0
2017-11-15T02:40:49.579Z,0
2017-11-15T02:41:50.976Z,0
2017-11-15T02:42:52.369Z,0
2017-11-15T02:43:53.767Z,0
2017-11-15T02:44:55.164Z,0
2017-11-15T02:45:56.561Z,0
2017-11-15T02:46:57.954Z,0
2017-11-15T02:47:59.346Z,0
2017-11-15T02:49:00.742Z,0
2017-11-15T02:50:02.134Z,0
2017-11-15T02:51:03.529Z,0
2017-11-15T02:52:04.925Z,0
2017-11-15T02:53:06.321Z,0
2017-11-15T02:54:07.747Z,0
2017-11-15T02:55:09.122Z,0
2017-11-15T02:56:10.518Z,0
2017-11-15T02:57:11.913Z,0
2017-11-15T02:58:13.313Z,0
2017-11-15T02:59:14.708Z,0
2017-11-15T03:00:16.106Z,0
2017-11-15T03:01:17.504Z,0
2017-11-15T03:02:18.900Z,0
2017-11-15T03:03:20.286Z,0
2017-11-15T03:04:21.685Z,0
2017-11-15T03:05:23.080Z,0
2017-11-15T03:06:24.475Z,0
2017-11-15T03:07:25.873Z,0
2017-11-15T03:08:27.272Z,0
2017-11-15T03:09:28.667Z,0
2017-11-15T03:10:30.061Z,0
2017-11-15T03:11:31.453Z,0
2017-11-15T03:12:32.852Z,0
2017-11-15T03:13:34.248Z,0
2017-11-15T03:14:35.649Z,0
2017-11-15T03:15:37.040Z,0
2017-11-15T03:16:38.431Z,0
2017-11-15T03:17:39.833Z,0
2017-11-15T03:18:41.228Z,0
2017-11-15T03:19:42.627Z,0
2017-11-15T03:20:44.027Z,0
2017-11-15T03:21:45.418Z,0
2017-11-15T03:22:46.816Z,0
2017-11-15T03:23:48.208Z,0
2017-11-15T03:24:49.604Z,0
2017-11-15T03:25:51.002Z,0
2017-11-15T03:26:52.405Z,0
2017-11-15T03:27:53.801Z,0
2017-11-15T03:28:55.199Z,0
2017-11-15T03:29:56.589Z,0
2017-11-15T03:30:57.986Z,0
2017-11-15T03:31:59.380Z,0
2017-11-15T03:33:00.774Z,0
2017-11-15T03:34:02.179Z,0
2017-11-15T03:35:03.576Z,0
2017-11-15T03:36:04.973Z,0
2017-11-15T03:37:06.365Z,0
2017-11-15T03:38:07.761Z,0
2017-11-15T03:39:09.153Z,0
2017-11-15T03:40:10.548Z,0
2017-11-15T03:41:11.946Z,0
2017-11-15T03:42:13.340Z,0
2017-11-15T03:43:14.740Z,0
2017-11-15T03:44:16.133Z,0
2017-11-15T03:45:17.526Z,0
2017-11-15T03:46:18.929Z,0
2017-11-15T03:47:20.314Z,0
2017-11-15T03:48:21.711Z,0
2017-11-15T03:49:23.106Z,0
2017-11-15T03:50:24.505Z,0
2017-11-15T03:51:25.901Z,0
2017-11-15T03:52:27.293Z,0
2017-11-15T03:53:28.694Z,0
2017-11-15T03:54:30.088Z,0
2017-11-15T03:55:31.485Z,0
2017-11-15T03:56:32.884Z,0
2017-11-15T03:57:34.281Z,0
2017-11-15T03:58:35.678Z,0
2017-11-15T03:59:37.070Z,0
2017-11-15T04:00:38.467Z,0
2017-11-15T04:01:39.858Z,0
2017-11-15T04:02:41.254Z,0
2017-11-15T04:03:42.657Z,0
2017-11-15T04:04:44.055Z,0
2017-11-15T04:05:45.448Z,0
2017-11-15T04:06:46.844Z,0
2017-11-15T04:07:48.234Z,0
2017-11-15T04:08:49.629Z,0
2017-11-15T04:09:51.025Z,0
2017-11-15T04:10:52.424Z,0
2017-11-15T04:11:53.820Z,0
2017-11-15T04:12:55.213Z,0
2017-11-15T04:13:56.609Z,0
2017-11-15T04:14:58.005Z,0
2017-11-15T04:15:59.397Z,0
2017-11-15T04:17:00.796Z,0
2017-11-15T04:18:02.188Z,0
2017-11-15T04:19:03.584Z,0
2017-11-15T04:20:04.979Z,0
2017-11-15T04:21:06.374Z,0
2017-11-15T04:22:07.770Z,0
2017-11-15T04:23:09.167Z,0
2017-11-15T04:24:10.560Z,0
2017-11-15T04:25:11.955Z,0
2017-11-15T04:26:13.354Z,0
2017-11-15T04:27:14.750Z,0
2017-11-15T04:28:16.148Z,0
2017-11-15T04:29:17.544Z,0
2017-11-15T04:30:18.935Z,0
2017-11-15T04:31:20.332Z,0
2017-11-15T04:32:21.727Z,0
2017-11-15T04:33:23.126Z,0
2017-11-15T04:34:24.523Z,0
2017-11-15T04:35:25.917Z,0
2017-11-15T04:36:27.311Z,0
2017-11-15T04:37:28.708Z,0
2017-11-15T04:38:30.104Z,0
2017-11-15T04:39:31.502Z,0
2017-11-15T04:40:32.898Z,0
2017-11-15T04:41:34.294Z,0
2017-11-15T04:42:35.688Z,0
2017-11-15T04:43:37.087Z,0
2017-11-15T04:44:38.478Z,0
2017-11-15T04:45:39.875Z,0
2017-11-15T04:46:41.271Z,0
2017-11-15T04:47:42.668Z,0
2017-11-15T04:48:44.020Z,0
2017-11-15T04:49:45.416Z,0
2017-11-15T04:50:46.811Z,0
2017-11-15T04:51:48.203Z,0
2017-11-15T04:52:49.599Z,0
2017-11-15T04:53:50.998Z,0
2017-11-15T04:54:52.410Z,0
2017-11-15T04:55:53.801Z,0
2017-11-15T04:56:55.196Z,0
2017-11-15T04:57:56.591Z,0
2017-11-15T04:58:57.985Z,0
2017-11-15T04:59:59.383Z,0
2017-11-15T05:01:00.784Z,0
2017-11-15T05:02:02.180Z,0
2017-11-15T05:03:03.571Z,0
2017-11-15T05:04:04.996Z,0
2017-11-15T05:05:06.393Z,0
2017-11-15T05:06:07.787Z,0
2017-11-15T05:07:09.183Z,0
2017-11-15T05:08:10.578Z,0
2017-11-15T05:09:11.976Z,0
2017-11-15T05:10:13.373Z,0
2017-11-15T05:11:14.766Z,0
2017-11-15T05:12:16.158Z,0
2017-11-15T05:13:17.552Z,0
2017-11-15T05:14:18.950Z,0
2017-11-15T05:15:20.349Z,0
2017-11-15T05:16:21.746Z,0
2017-11-15T05:17:23.152Z,0
2017-11-15T05:18:24.536Z,0
2017-11-15T05:19:25.936Z,0
2017-11-15T05:20:27.330Z,0
2017-11-15T05:21:28.725Z,0
2017-11-15T05:22:30.125Z,0
2017-11-15T05:23:31.517Z,0
2017-11-15T05:24:32.908Z,0
2017-11-15T05:25:34.304Z,0
2017-11-15T05:26:35.695Z,0
2017-11-15T05:27:37.094Z,0
2017-11-15T05:28:38.490Z,0
2017-11-15T05:29:39.885Z,0
2017-11-15T05:30:41.284Z,0
2017-11-15T05:31:42.684Z,0
2017-11-15T05:32:44.069Z,0
2017-11-15T05:33:45.469Z,0
2017-11-15T05:34:46.866Z,0
2017-11-15T05:35:48.282Z,0
2017-11-15T05:36:49.655Z,0
2017-11-15T05:37:51.053Z,0
2017-11-15T05:38:52.444Z,0
2017-11-15T05:39:53.840Z,0
2017-11-15T05:40:55.240Z,0
2017-11-15T05:41:56.631Z,0
2017-11-15T05:42:58.027Z,0
2017-11-15T05:43:59.431Z,0
2017-11-15T05:45:00.829Z,0
2017-11-15T05:46:02.247Z,0
2017-11-15T05:47:03.641Z,0
2017-11-15T05:48:05.035Z,0
2017-11-15T05:49:06.435Z,0
2017-11-15T05:50:07.830Z,0
2017-11-15T05:51:09.227Z,0
2017-11-15T05:52:10.621Z,0
2017-11-15T05:53:12.019Z,0
2017-11-15T05:54:13.419Z,0
2017-11-15T05:55:14.808Z,0
2017-11-15T05:56:16.202Z,0
2017-11-15T05:57:17.597Z,0
2017-11-15T05:58:18.993Z,0
2017-11-15T05:59:20.389Z,0
2017-11-15T06:00:21.786Z,0
2017-11-15T06:01:23.181Z,0
2017-11-15T06:02:24.581Z,0
2017-11-15T06:03:25.982Z,0
2017-11-15T06:04:27.366Z,0
2017-11-15T06:05:28.765Z,0
2017-11-15T06:06:30.162Z,0
2017-11-15T06:07:31.558Z,0
2017-11-15T06:08:32.956Z,0
2017-11-15T06:09:34.349Z,0
2017-11-15T06:10:35.814Z,0
2017-11-15T06:11:37.178Z,0
2017-11-15T06:12:38.596Z,0
2017-11-15T06:13:40.008Z,0
2017-11-15T06:14:41.409Z,0
2017-11-15T06:15:42.801Z,0
2017-11-15T06:16:44.149Z,0
2017-11-15T06:17:45.549Z,0
2017-11-15T06:18:46.980Z,0
2017-11-15T06:19:48.306Z,0
2017-11-15T06:20:49.708Z,0
2017-11-15T06:21:51.120Z,0
2017-11-15T06:22:52.509Z,0
2017-11-15T06:23:53.936Z,0
2017-11-15T06:24:55.404Z,0
2017-11-15T06:25:56.696Z,0
2017-11-15T06:26:58.269Z,0
2017-11-15T06:27:59.788Z,0
2017-11-15T06:29:01.329Z,0
2017-11-15T06:30:02.819Z,0
2017-11-15T06:31:04.298Z,0
2017-11-15T06:32:05.658Z,0
2017-11-15T06:33:06.986Z,0
2017-11-15T06:34:08.407Z,0
2017-11-15T06:35:09.923Z,0
2017-11-15T06:36:11.165Z,0
2017-11-15T06:37:12.573Z,0
2017-11-15T06:38:13.946Z,0
2017-11-15T06:39:15.341Z,0
2017-11-15T06:40:16.736Z,0
2017-11-15T06:41:18.140Z,0
2017-11-15T06:42:19.534Z,0
2017-11-15T06:43:20.927Z,0
2017-11-15T06:44:22.393Z,0
2017-11-15T06:45:23.719Z,0
2017-11-15T06:46:25.116Z,0
2017-11-15T06:47:26.512Z,0
2017-11-15T06:48:27.910Z,0
2017-11-15T06:49:29.312Z,0
2017-11-15T06:50:30.705Z,0
2017-11-15T06:51:32.100Z,0
2017-11-15T06:52:33.500Z,0
2017-11-15T06:53:34.898Z,0
2017-11-15T06:54:36.297Z,0
2017-11-15T06:55:37.693Z,0
2017-11-15T06:56:39.090Z,0
2017-11-15T06:57:40.514Z,5
2017-11-15T06:58:41.908Z,5
2017-11-15T06:59:43.307Z,5
2017-11-15T07:00:44.710Z,5
2017-11-15T07:01:46.112Z,5
2017-11-15T07:02:47.513Z,5
2017-11-15T07:03:48.911Z,5
2017-11-15T07:04:50.318Z,5
2017-11-15T07:05:51.710Z,5
2017-11-15T07:06:53.112Z,5
2017-11-15T07:07:54.509Z,5
2017-11-15T07:08:55.910Z,5
2017-11-15T07:09:57.309Z,5
2017-11-15T07:10:58.706Z,11
2017-11-15T07:12:00.104Z,11
2017-11-15T07:13:01.500Z,11
2017-11-15T07:14:02.900Z,11
2017-11-15T07:15:04.296Z,11
2017-11-15T07:16:05.698Z,11
2017-11-15T07:17:07.099Z,11
2017-11-15T07:18:08.511Z,11
2017-11-15T07:19:09.909Z,16
2017-11-15T07:20:11.309Z,16
2017-11-15T07:21:12.711Z,16
2017-11-15T07:22:14.110Z,16
2017-11-15T07:23:15.522Z,16
2017-11-15T07:24:16.927Z,16
2017-11-15T07:25:18.330Z,16
2017-11-15T07:26:19.728Z,16
2017-11-15T07:27:21.125Z,16
2017-11-15T07:28:22.523Z,16
2017-11-15T07:29:23.922Z,16
2017-11-15T07:30:25.320Z,16
2017-11-15T07:31:26.723Z,22
2017-11-15T07:32:28.122Z,22
2017-11-15T07:33:29.519Z,28
2017-11-15T07:34:30.920Z,33
2017-11-15T07:35:32.318Z,39
2017-11-15T07:36:33.716Z,45
2017-11-15T07:37:35.121Z,45
2017-11-15T07:38:36.526Z,45
2017-11-15T07:39:37.930Z,45
2017-11-15T07:40:39.332Z,45
2017-11-15T07:41:40.733Z,39
2017-11-15T07:42:42.135Z,39
2017-11-15T07:43:43.535Z,33
2017-11-15T07:44:44.954Z,33
2017-11-15T07:45:46.339Z,39
2017-11-15T07:46:47.741Z,33
2017-11-15T07:47:49.143Z,33
2017-11-15T07:48:50.552Z,33
2017-11-15T07:49:51.955Z,33
2017-11-15T07:50:53.349Z,33
2017-11-15T07:51:54.753Z,39
2017-11-15T07:52:56.162Z,45
2017-11-15T07:53:57.559Z,45
2017-11-15T07:54:58.958Z,50
2017-11-15T07:56:00.356Z,50
2017-11-15T07:57:01.772Z,56
2017-11-15T07:58:03.169Z,56
2017-11-15T07:59:04.573Z,56
2017-11-15T08:00:06.073Z,50
2017-11-15T08:01:07.478Z,50
2017-11-15T08:02:08.878Z,50
2017-11-15T08:03:10.290Z,45
2017-11-15T08:04:11.694Z,45
2017-11-15T08:05:13.094Z,45
2017-11-15T08:06:14.500Z,39
2017-11-15T08:07:15.901Z,39
2017-11-15T08:08:17.265Z,39
2017-11-15T08:09:18.687Z,39
2017-11-15T08:10:20.068Z,39
2017-11-15T08:11:21.471Z,39
2017-11-15T08:12:22.876Z,39
2017-11-15T08:13:24.326Z,33
2017-11-15T08:14:25.729Z,28
2017-11-15T08:15:27.130Z,28
2017-11-15T08:16:28.533Z,28
2017-11-15T08:17:29.933Z,28
2017-11-15T08:18:31.345Z,33
2017-11-15T08:19:32.739Z,33
2017-11-15T08:20:34.142Z,39
2017-11-15T08:21:35.546Z,39
2017-11-15T08:22:36.951Z,45
2017-11-15T08:23:38.352Z,39
2017-11-15T08:24:39.750Z,39
2017-11-15T08:25:41.155Z,39
2017-11-15T08:26:42.554Z,45
2017-11-15T08:27:43.956Z,50
2017-11-15T08:28:45.360Z,50
2017-11-15T08:29:46.763Z,56
2017-11-15T08:30:48.165Z,56
2017-11-15T08:31:49.567Z,56
2017-11-15T08:32:50.974Z,56
2017-11-15T08:33:52.375Z,56
2017-11-15T08:34:53.775Z,56
2017-11-15T08:35:55.179Z,56
2017-11-15T08:36:56.582Z,56
2017-11-15T08:37:57.981Z,50
2017-11-15T08:38:59.379Z,50
2017-11-15T08:40:00.780Z,50
2017-11-15T08:41:02.182Z,45
2017-11-15T08:42:03.583Z,45
2017-11-15T08:43:04.988Z,45
2017-11-15T08:44:06.391Z,39
2017-11-15T08:45:07.792Z,39
2017-11-15T08:46:09.192Z,39
2017-11-15T08:47:10.593Z,39
2017-11-15T08:48:11.990Z,39
2017-11-15T08:49:13.391Z,39
2017-11-15T08:50:14.793Z,39
2017-11-15T08:51:16.198Z,39
2017-11-15T08:52:17.599Z,39
2017-11-15T08:53:18.997Z,39
2017-11-15T08:54:20.399Z,39
2017-11-15T08:55:21.800Z,39
2017-11-15T08:56:23.200Z,39
2017-11-15T08:57:24.604Z,39
2017-11-15T08:58:26.005Z,39
2017-11-15T08:59:27.407Z,39
2017-11-15T09:00:28.806Z,45
2017-11-15T09:01:30.212Z,45
2017-11-15T09:02:31.605Z,45
2017-11-15T09:03:33.018Z,45
2017-11-15T09:04:34.421Z,50
2017-11-15T09:05:35.823Z,56
2017-11-15T09:06:37.228Z,56
2017-11-15T09:07:38.626Z,50
2017-11-15T09:08:40.028Z,50
2017-11-15T09:09:41.435Z,50
2017-11-15T09:10:42.831Z,50
2017-11-15T09:11:44.235Z,50
2017-11-15T09:12:45.639Z,50
2017-11-15T09:13:47.037Z,50
2017-11-15T09:14:48.445Z,50
2017-11-15T09:15:49.847Z,50
2017-11-15T09:16:51.251Z,50
2017-11-15T09:17:52.655Z,50
2017-11-15T09:18:54.060Z,50
2017-11-15T09:19:55.465Z,50
2017-11-15T09:20:56.868Z,50
2017-11-15T09:21:58.273Z,50
2017-11-15T09:22:59.671Z,45
2017-11-15T09:24:01.075Z,45
2017-11-15T09:25:02.474Z,45
2017-11-15T09:26:03.876Z,45
2017-11-15T09:27:05.277Z,39
2017-11-15T09:28:06.677Z,39
2017-11-15T09:29:08.080Z,39
2017-11-15T09:30:09.485Z,39
2017-11-15T09:31:10.882Z,39
2017-11-15T09:32:12.288Z,39
2017-11-15T09:33:13.687Z,39
2017-11-15T09:34:15.094Z,39
2017-11-15T09:35:16.490Z,39
2017-11-15T09:36:17.889Z,39
2017-11-15T09:37:19.288Z,39
2017-11-15T09:38:20.691Z,39
2017-11-15T09:39:22.093Z,39
2017-11-15T09:40:23.490Z,39
2017-11-15T09:41:24.896Z,39
2017-11-15T09:42:26.293Z,39
2017-11-15T09:43:27.701Z,39
2017-11-15T09:44:29.101Z,45
2017-11-15T09:45:30.502Z,45
2017-11-15T09:46:31.905Z,45
2017-11-15T09:47:33.311Z,45
2017-11-15T09:48:34.717Z,45
2017-11-15T09:49:36.145Z,45
2017-11-15T09:50:37.536Z,50
2017-11-15T09:51:38.940Z,50
2017-11-15T09:52:40.392Z,50
2017-11-15T09:53:41.797Z,50
2017-11-15T09:54:43.205Z,45
2017-11-15T09:55:44.606Z,45
2017-11-15T09:56:46.016Z,45
2017-11-15T09:57:47.410Z,45
2017-11-15T09:58:48.813Z,45
2017-11-15T09:59:50.217Z,45
2017-11-15T10:00:51.620Z,50
2017-11-15T10:01:53.021Z,56
2017-11-15T10:02:54.431Z,56
2017-11-15T10:03:55.825Z,61
2017-11-15T10:04:57.226Z,61
2017-11-15T10:05:58.625Z,73
2017-11-15T10:07:00.032Z,78
2017-11-15T10:08:01.435Z,84
2017-11-15T10:09:02.841Z,78
2017-11-15T10:10:04.242Z,84
2017-11-15T10:11:05.645Z,84
2017-11-15T10:12:07.049Z,90
2017-11-15T10:13:08.450Z,84
2017-11-15T10:14:09.852Z,84
2017-11-15T10:15:11.261Z,84
2017-11-15T10:16:12.668Z,90
2017-11-15T10:17:14.077Z,84
2017-11-15T10:18:15.476Z,84
2017-11-15T10:19:16.881Z,78
2017-11-15T10:20:18.285Z,67
2017-11-15T10:21:19.686Z,61
2017-11-15T10:22:21.092Z,61
2017-11-15T10:23:22.494Z,61
2017-11-15T10:24:23.902Z,61
2017-11-15T10:25:25.302Z,61
2017-11-15T10:26:26.704Z,61
2017-11-15T10:27:28.109Z,61
2017-11-15T10:28:29.510Z,61
2017-11-15T10:29:30.913Z,56
2017-11-15T10:30:32.314Z,50
2017-11-15T10:31:33.717Z,50
2017-11-15T10:32:35.119Z,50
2017-11-15T10:33:36.519Z,50
2017-11-15T10:34:37.923Z,50
2017-11-15T10:35:39.329Z,56
2017-11-15T10:36:40.728Z,61
2017-11-15T10:37:42.132Z,61
2017-11-15T10:38:43.560Z,67
2017-11-15T10:39:44.947Z,67
2017-11-15T10:40:46.354Z,73
2017-11-15T10:41:47.737Z,78
2017-11-15T10:42:49.158Z,84
2017-11-15T10:43:50.554Z,84
2017-11-15T10:44:51.962Z,84
2017-11-15T10:45:53.361Z,78
2017-11-15T10:46:54.762Z,73
2017-11-15T10:47:56.164Z,73
2017-11-15T10:48:57.573Z,67
2017-11-15T10:49:58.983Z,67
2017-11-15T10:51:00.382Z,67
2017-11-15T10:52:01.787Z,67
2017-11-15T10:53:03.191Z,67
2017-11-15T10:54:04.590Z,61
2017-11-15T10:55:05.994Z,61
2017-11-15T10:56:07.399Z,67
2017-11-15T10:57:08.804Z,73
2017-11-15T10:58:10.209Z,73
2017-11-15T10:59:11.615Z,73
2017-11-15T11:00:13.020Z,78
2017-11-15T11:01:14.421Z,84
2017-11-15T11:02:15.827Z,84
2017-11-15T11:03:17.225Z,90
2017-11-15T11:04:18.628Z,95
2017-11-15T11:05:20.029Z,95
2017-11-15T11:06:21.431Z,95
2017-11-15T11:07:22.839Z,101
2017-11-15T11:08:24.253Z,106
2017-11-15T11:09:25.663Z,112
2017-11-15T11:10:27.061Z,118
2017-11-15T11:11:28.468Z,118
2017-11-15T11:12:29.875Z,118
2017-11-15T11:13:31.279Z,123
2017-11-15T11:14:32.685Z,123
2017-11-15T11:15:34.102Z,118
2017-11-15T11:16:35.508Z,112
2017-11-15T11:17:36.909Z,106
2017-11-15T11:18:38.318Z,101
2017-11-15T11:19:39.729Z,95
2017-11-15T11:20:41.139Z,95
2017-11-15T11:21:42.538Z,101
2017-11-15T11:22:43.944Z,106
2017-11-15T11:23:45.349Z,106
2017-11-15T11:24:46.753Z,106
2017-11-15T11:25:48.156Z,106
2017-11-15T11:26:49.560Z,101
2017-11-15T11:27:50.965Z,101
2017-11-15T11:28:52.368Z,101
2017-11-15T11:29:53.780Z,101
2017-11-15T11:30:55.183Z,101
2017-11-15T11:31:56.622Z,101
2017-11-15T11:32:58.025Z,95
2017-11-15T11:33:59.428Z,95
2017-11-15T11:35:00.832Z,90
2017-11-15T11:36:02.237Z,95
2017-11-15T11:37:03.639Z,95
2017-11-15T11:38:05.042Z,101
2017-11-15T11:39:06.442Z,106
2017-11-15T11:40:07.849Z,106
2017-11-15T11:41:09.260Z,112
2017-11-15T11:42:10.663Z,112
2017-11-15T11:43:12.069Z,123
2017-11-15T11:44:13.476Z,123
2017-11-15T11:45:14.880Z,129
2017-11-15T11:46:16.287Z,140
2017-11-15T11:47:17.693Z,146
2017-11-15T11:48:19.099Z,146
2017-11-15T11:49:20.501Z,157
2017-11-15T11:50:21.910Z,157
2017-11-15T11:51:23.314Z,157
2017-11-15T11:52:24.717Z,157
2017-11-15T11:53:26.120Z,151
2017-11-15T11:54:27.534Z,146
2017-11-15T11:55:28.950Z,140
2017-11-15T11:56:30.370Z,135
2017-11-15T11:57:31.777Z,129
2017-11-15T11:58:33.195Z,123
2017-11-15T11:59:34.583Z,123
2017-11-15T12:00:35.985Z,123
2017-11-15T12:01:37.388Z,123
2017-11-15T12:02:38.793Z,123
2017-11-15T12:03:40.208Z,123
2017-11-15T12:04:41.605Z,129
2017-11-15T12:05:43.010Z,123
2017-11-15T12:06:44.410Z,123
2017-11-15T12:07:45.818Z,118
2017-11-15T12:08:47.221Z,123
2017-11-15T12:09:48.627Z,123
2017-11-15T12:10:50.034Z,123
2017-11-15T12:11:51.440Z,118
2017-11-15T12:12:52.843Z,118
2017-11-15T12:13:54.255Z,112
2017-11-15T12:14:55.654Z,106
2017-11-15T12:15:57.061Z,101
2017-11-15T12:16:58.462Z,90
2017-11-15T12:17:59.868Z,90
2017-11-15T12:19:01.271Z,90
2017-11-15T12:20:02.676Z,90
2017-11-15T12:21:04.077Z,84
2017-11-15T12:22:05.482Z,78
2017-11-15T12:23:06.915Z,78
2017-11-15T12:24:08.292Z,73
2017-11-15T12:25:09.701Z,73
2017-11-15T12:26:11.102Z,67
2017-11-15T12:27:12.505Z,73
2017-11-15T12:28:13.915Z,73
2017-11-15T12:29:15.314Z,73
2017-11-15T12:30:16.724Z,73
2017-11-15T12:31:18.123Z,78
2017-11-15T12:32:19.530Z,73
2017-11-15T12:33:20.942Z,73
2017-11-15T12:34:22.342Z,67
2017-11-15T12:35:23.743Z,67
2017-11-15T12:36:25.148Z,67
2017-11-15T12:37:26.552Z,61
2017-11-15T12:38:27.956Z,61
2017-11-15T12:39:29.359Z,61
2017-11-15T12:40:30.775Z,61
2017-11-15T12:41:32.188Z,56
2017-11-15T12:42:33.591Z,56
2017-11-15T12:43:34.995Z,56
2017-11-15T12:44:36.402Z,50
2017-11-15T12:45:37.801Z,50
2017-11-15T12:46:39.207Z,50
2017-11-15T12:47:40.609Z,45
2017-11-15T12:48:41.972Z,45
2017-11-15T12:49:43.373Z,45
2017-11-15T12:50:44.776Z,39
2017-11-15T12:51:46.182Z,39
2017-11-15T12:52:47.588Z,39
2017-11-15T12:53:48.991Z,39
2017-11-15T12:54:50.394Z,39
2017-11-15T12:55:51.798Z,39
2017-11-15T12:56:53.200Z,39
2017-11-15T12:57:54.603Z,39
2017-11-15T12:58:56.007Z,39
2017-11-15T12:59:57.410Z,39
2017-11-15T13:00:58.815Z,39
2017-11-15T13:02:00.222Z,39
2017-11-15T13:03:01.627Z,39
2017-11-15T13:04:03.028Z,39
2017-11-15T13:05:04.440Z,39
2017-11-15T13:06:05.851Z,39
2017-11-15T13:07:07.253Z,45
2017-11-15T13:08:08.656Z,45
2017-11-15T13:09:10.066Z,45
2017-11-15T13:10:11.464Z,45
2017-11-15T13:11:12.885Z,45
2017-11-15T13:12:14.315Z,45
2017-11-15T13:13:15.717Z,39
2017-11-15T13:14:17.125Z,39
2017-11-15T13:15:18.528Z,39
2017-11-15T13:16:19.933Z,39
2017-11-15T13:17:21.336Z,39
2017-11-15T13:18:22.767Z,39
2017-11-15T13:19:24.142Z,39
2017-11-15T13:20:25.542Z,39
2017-11-15T13:21:26.950Z,45
2017-11-15T13:22:28.360Z,45
2017-11-15T13:23:29.764Z,45
2017-11-15T13:24:31.165Z,45
2017-11-15T13:25:32.566Z,39
2017-11-15T13:26:33.968Z,39
2017-11-15T13:27:35.371Z,39
2017-11-15T13:28:36.776Z,39
2017-11-15T13:29:38.174Z,39
2017-11-15T13:30:39.579Z,33
2017-11-15T13:31:40.981Z,33
2017-11-15T13:32:42.382Z,33
2017-11-15T13:33:43.792Z,33
2017-11-15T13:34:45.192Z,33
2017-11-15T13:35:46.595Z,33
2017-11-15T13:36:47.994Z,33
2017-11-15T13:37:49.401Z,33
2017-11-15T13:38:50.803Z,33
2017-11-15T13:39:52.203Z,33
2017-11-15T13:40:53.602Z,33
2017-11-15T13:41:55.007Z,28
2017-11-15T13:42:56.409Z,28
2017-11-15T13:43:57.814Z,28
2017-11-15T13:44:59.218Z,28
2017-11-15T13:46:00.626Z,28
2017-11-15T13:47:02.031Z,28
2017-11-15T13:48:03.438Z,28
2017-11-15T13:49:04.833Z,28
2017-11-15T13:50:06.237Z,28
2017-11-15T13:51:07.786Z,28
2017-11-15T13:52:09.186Z,28
2017-11-15T13:53:10.585Z,33
2017-11-15T13:54:11.987Z,33
2017-11-15T13:55:13.388Z,39
2017-11-15T13:56:14.793Z,39
2017-11-15T13:57:16.202Z,45
2017-11-15T13:58:17.613Z,45
2017-11-15T13:59:19.019Z,45
2017-11-15T14:00:20.428Z,50
2017-11-15T14:01:21.830Z,50
2017-11-15T14:02:23.232Z,50
2017-11-15T14:03:24.635Z,50
2017-11-15T14:04:26.040Z,56
2017-11-15T14:05:27.448Z,50
2017-11-15T14:06:28.847Z,50
2017-11-15T14:07:30.251Z,50
2017-11-15T14:08:31.661Z,45
2017-11-15T14:09:33.064Z,45
2017-11-15T14:10:34.465Z,39
2017-11-15T14:11:35.872Z,39
2017-11-15T14:12:37.277Z,39
2017-11-15T14:13:38.685Z,33
2017-11-15T14:14:40.088Z,33
2017-11-15T14:15:41.488Z,33
2017-11-15T14:16:42.901Z,28
2017-11-15T14:17:44.295Z,28
2017-11-15T14:18:45.695Z,28
2017-11-15T14:19:47.097Z,28
2017-11-15T14:20:48.501Z,28
2017-11-15T14:21:49.904Z,33
2017-11-15T14:22:51.323Z,33
2017-11-15T14:23:52.709Z,33
2017-11-15T14:24:54.108Z,33
2017-11-15T14:25:55.512Z,28
2017-11-15T14:26:56.916Z,28
2017-11-15T14:27:58.318Z,22
2017-11-15T14:28:59.721Z,22
2017-11-15T14:30:01.133Z,22
2017-11-15T14:31:02.525Z,16
2017-11-15T14:32:03.925Z,16
2017-11-15T14:33:05.325Z,16
2017-11-15T14:34:06.725Z,16
2017-11-15T14:35:08.202Z,16
2017-11-15T14:36:09.607Z,16
2017-11-15T14:37:11.007Z,16
2017-11-15T14:38:12.410Z,16
2017-11-15T14:39:13.816Z,16
2017-11-15T14:40:15.233Z,16
2017-11-15T14:41:16.635Z,16
2017-11-15T14:42:18.039Z,16
2017-11-15T14:43:19.438Z,11
2017-11-15T14:44:20.843Z,11
2017-11-15T14:45:22.247Z,11
2017-11-15T14:46:23.674Z,11
2017-11-15T14:47:25.054Z,11
2017-11-15T14:48:26.514Z,11